Temp: 6.2°C   Baro: 995.8mb
  Wind: 0.9mph   Dir: E (88°)
  Rain: 0.2mm (0.0mm/hr)
  Solar: 0W/m2  Hum: 93%
 
Bath Spa Weather Historical Data
Daily Summary for November 09, 2019 Units:  English    Metric   Both
Next Day »
Daily Weekly Monthly Yearly Custom
  High: Low: Average:
Temperature: 44.6 °F 29.7 °F 37.8 °F
Dew Point: 43.2 °F 27.7 °F 36 °F
Humidity: 95% 89% 93%
Wind Speed: 8.9mph 0mph 1.3mph
Wind Gust: 11mph - -
Wind direction- - SSW
Pressure: 29.9 in 29.5 in -
Precipitation: 0.3 in    
Historical Graphs
 
 
Tabular Data for November 09, 2019
Time Temperature Dew Point Pressure Wind direction Wind Speed Wind Gust Humidity Rainfall Rate (Hourly) solar
00:00 34.7 °F 31.8 °F 29.9 in Calm   1 mph 89% 0 in 0.00 W/m2
00:05 34.9 °F 32 °F 29.9 in Calm   1 mph 89% 0 in 0.00 W/m2
00:10 34.7 °F 31.8 °F 29.9 in NW 2 mph 2 mph 89% 0 in 0.00 W/m2
00:15 34.5 °F 31.6 °F 29.9 in Calm   1 mph 89% 0 in 0.00 W/m2
00:20 34.3 °F 31.5 °F 29.9 in Calm     89% 0 in 0.00 W/m2
00:25 34.2 °F 31.3 °F 29.9 in Calm     89% 0 in 0.00 W/m2
00:30 34.2 °F 31.3 °F 29.9 in Calm   1 mph 89% 0 in 0.00 W/m2
00:35 34 °F 31.1 °F 29.9 in Calm     89% 0 in 0.00 W/m2
00:40 33.6 °F 30.7 °F 29.9 in Calm     89% 0 in 0.00 W/m2
00:45 33.4 °F 30.6 °F 29.9 in Calm     89% 0 in 0.00 W/m2
00:50 33.3 °F 30.4 °F 29.9 in Calm     89% 0 in 0.00 W/m2
00:55 33.3 °F 30.4 °F 29.9 in Calm     89% 0 in 0.00 W/m2
01:00 33.1 °F 30.2 °F 29.9 in Calm     89% 0 in 0.00 W/m2
01:05 33.1 °F 30.4 °F 29.9 in Calm     90% 0 in 0.00 W/m2
01:10 32.7 °F 30.2 °F 29.9 in Calm     90% 0 in 0.00 W/m2
01:15 32.7 °F 30.2 °F 29.9 in Calm   1 mph 90% 0 in 0.00 W/m2
01:20 32.5 °F 30 °F 29.9 in Calm     90% 0 in 0.00 W/m2
01:25 32.4 °F 29.8 °F 29.9 in Calm   1 mph 90% 0 in 0.00 W/m2
01:30 32.5 °F 30 °F 29.9 in Calm   1 mph 90% 0 in 0.00 W/m2
01:35 32.4 °F 29.8 °F 29.9 in Calm     90% 0 in 0.00 W/m2
01:40 32.2 °F 29.7 °F 29.9 in Calm     90% 0 in 0.00 W/m2
01:45 32.2 °F 29.7 °F 29.9 in Calm     90% 0 in 0.00 W/m2
01:50 32.2 °F 29.7 °F 29.9 in Calm     90% 0 in 0.00 W/m2
01:55 32 °F 29.7 °F 29.9 in Calm     91% 0 in 0.00 W/m2
02:00 32 °F 29.7 °F 29.9 in Calm     91% 0 in 0.00 W/m2
02:05 31.8 °F 29.5 °F 29.9 in Calm     91% 0 in 0.00 W/m2
02:10 31.6 °F 29.3 °F 29.9 in Calm     91% 0 in 0.00 W/m2
02:15 31.6 °F 29.3 °F 29.9 in Calm     91% 0 in 0.00 W/m2
02:20 31.5 °F 29.1 °F 29.9 in Calm     91% 0 in 0.00 W/m2
02:25 31.6 °F 29.3 °F 29.9 in Calm     91% 0 in 0.00 W/m2
02:30 31.5 °F 29.1 °F 29.9 in Calm     91% 0 in 0.00 W/m2
02:35 31.5 °F 29.1 °F 29.9 in Calm     91% 0 in 0.00 W/m2
02:40 31.5 °F 29.1 °F 29.9 in Calm     91% 0 in 0.00 W/m2
02:45 31.5 °F 29.1 °F 29.9 in Calm     91% 0 in 0.00 W/m2
02:50 31.5 °F 29.1 °F 29.9 in Calm     91% 0 in 0.00 W/m2
02:55 31.3 °F 28.9 °F 29.9 in Calm     91% 0 in 0.00 W/m2
03:00 31.5 °F 29.1 °F 29.9 in Calm     91% 0 in 0.00 W/m2
03:05 31.3 °F 28.9 °F 29.9 in Calm     91% 0 in 0.00 W/m2
03:10 31.1 °F 28.8 °F 29.9 in Calm     91% 0 in 0.00 W/m2
03:15 30.9 °F 28.6 °F 29.9 in Calm     91% 0 in 0.00 W/m2
03:20 30.9 °F 28.6 °F 29.9 in Calm     91% 0 in 0.00 W/m2
03:25 30.9 °F 28.9 °F 29.9 in Calm     92% 0 in 0.00 W/m2
03:30 31.1 °F 28.8 °F 29.9 in Calm     91% 0 in 0.00 W/m2
03:35 30.9 °F 28.9 °F 29.9 in Calm     92% 0 in 0.00 W/m2
03:40 30.7 °F 28.8 °F 29.9 in Calm     92% 0 in 0.00 W/m2
03:45 30.7 °F 28.8 °F 29.9 in Calm     92% 0 in 0.00 W/m2
03:50 30.9 °F 28.9 °F 29.9 in Calm     92% 0 in 0.00 W/m2
03:55 30.9 °F 28.9 °F 29.9 in Calm     92% 0 in 0.00 W/m2
04:00 30.7 °F 28.8 °F 29.8 in Calm     92% 0 in 0.00 W/m2
04:05 30.7 °F 28.8 °F 29.8 in Calm     92% 0 in 0.00 W/m2
04:10 30.6 °F 28.6 °F 29.8 in Calm     92% 0 in 0.00 W/m2
04:15 30.6 °F 28.6 °F 29.8 in Calm     92% 0 in 0.00 W/m2
04:20 30.6 °F 28.6 °F 29.8 in Calm     92% 0 in 0.00 W/m2
04:25 30.6 °F 28.6 °F 29.8 in Calm     92% 0 in 0.00 W/m2
04:30 30.7 °F 28.8 °F 29.8 in Calm     92% 0 in 0.00 W/m2
04:35 30.6 °F 28.6 °F 29.8 in Calm     92% 0 in 0.00 W/m2
04:40 30.4 °F 28.4 °F 29.8 in Calm     92% 0 in 0.00 W/m2
04:45 30.6 °F 28.6 °F 29.8 in Calm     92% 0 in 0.00 W/m2
04:50 30.4 °F 28.4 °F 29.8 in Calm     92% 0 in 0.00 W/m2
04:55 30.4 °F 28.4 °F 29.8 in Calm     92% 0 in 0.00 W/m2
05:00 30.4 °F 28.4 °F 29.8 in Calm     92% 0 in 0.00 W/m2
05:05 30.2 °F 28.2 °F 29.8 in Calm     92% 0 in 0.00 W/m2
05:10 30.2 °F 28.2 °F 29.8 in Calm     92% 0 in 0.00 W/m2
05:15 30 °F 28 °F 29.8 in Calm     92% 0 in 0.00 W/m2
05:20 30 °F 28 °F 29.8 in Calm   1 mph 92% 0 in 0.00 W/m2
05:25 29.8 °F 27.9 °F 29.8 in Calm     92% 0 in 0.00 W/m2
05:30 29.8 °F 27.9 °F 29.8 in Calm     92% 0 in 0.00 W/m2
05:35 29.8 °F 27.9 °F 29.8 in Calm     92% 0 in 0.00 W/m2
05:40 29.8 °F 28 °F 29.8 in Calm     93% 0 in 0.00 W/m2
05:45 29.8 °F 28 °F 29.8 in Calm     93% 0 in 0.00 W/m2
05:50 30 °F 28.2 °F 29.8 in Calm     93% 0 in 0.00 W/m2
05:55 29.8 °F 28 °F 29.8 in Calm     93% 0 in 0.00 W/m2
06:00 29.7 °F 27.7 °F 29.8 in Calm     92% 0 in 0.00 W/m2
06:05 29.7 °F 27.7 °F 29.8 in Calm     92% 0 in 0.00 W/m2
06:10 29.7 °F 27.9 °F 29.8 in Calm     93% 0 in 0.00 W/m2
06:15 29.7 °F 27.9 °F 29.8 in Calm     93% 0 in 0.00 W/m2
06:20 29.7 °F 27.9 °F 29.8 in Calm     93% 0 in 0.00 W/m2
06:25 29.8 °F 28 °F 29.8 in Calm     93% 0 in 0.00 W/m2
06:30 29.8 °F 28 °F 29.8 in Calm     93% 0 in 0.00 W/m2
06:35 29.8 °F 28 °F 29.8 in Calm     93% 0 in 0.00 W/m2
06:40 29.8 °F 28 °F 29.8 in Calm     93% 0 in 0.00 W/m2
06:45 29.8 °F 28 °F 29.8 in Calm     93% 0 in 0.00 W/m2
06:50 29.8 °F 28 °F 29.8 in Calm     93% 0 in 0.00 W/m2
06:55 30 °F 28.2 °F 29.8 in Calm     93% 0 in 0.00 W/m2
07:00 30 °F 28.2 °F 29.8 in Calm   2 mph 93% 0 in 0.00 W/m2
07:05 30.6 °F 28.8 °F 29.8 in Calm   2 mph 93% 0 in 0.00 W/m2
07:10 30.7 °F 28.9 °F 29.8 in East 4 mph 7 mph 93% 0 in 0.00 W/m2
07:15 31.6 °F 29.8 °F 29.8 in ESE 0.9 mph 3 mph 93% 0 in 5.00 W/m2
07:20 32.5 °F 30.7 °F 29.8 in Calm   7 mph 93% 0 in 7.00 W/m2
07:25 33.1 °F 31.3 °F 29.8 in ESE 2.9 mph 5 mph 93% 0 in 7.00 W/m2
07:30 33.4 °F 31.6 °F 29.8 in Calm   3 mph 93% 0 in 11.00 W/m2
07:35 33.4 °F 31.6 °F 29.7 in Calm   2 mph 93% 0 in 14.00 W/m2
07:40 33.4 °F 31.6 °F 29.7 in East 2 mph 7 mph 93% 0 in 18.00 W/m2
07:45 34 °F 32.2 °F 29.7 in Calm   4 mph 93% 0 in 19.00 W/m2
07:50 34 °F 32.2 °F 29.7 in Calm   2 mph 93% 0 in 21.00 W/m2
07:55 34.2 °F 32.4 °F 29.7 in Calm   3 mph 93% 0 in 19.00 W/m2
08:00 34.7 °F 32.9 °F 29.7 in ESE 2 mph 3 mph 93% 0 in 25.00 W/m2
08:05 34.9 °F 33.1 °F 29.7 in Calm     93% 0 in 28.00 W/m2
08:10 35.1 °F 33.3 °F 29.7 in Calm   1 mph 93% 0 in 32.00 W/m2
08:15 35.1 °F 33.3 °F 29.7 in Calm   3 mph 93% 0 in 30.00 W/m2
08:20 35.2 °F 33.4 °F 29.7 in SE 2 mph 7 mph 93% 0 in 28.00 W/m2
08:25 35.4 °F 33.6 °F 29.7 in ESE 2 mph 4 mph 93% 0 in 35.00 W/m2
08:30 35.6 °F 33.8 °F 29.7 in Calm   3 mph 93% 0 in 30.00 W/m2
08:35 35.8 °F 34 °F 29.7 in East 0.9 mph 5 mph 93% 0 in 30.00 W/m2
08:40 35.8 °F 34 °F 29.7 in ESE 0.9 mph 5 mph 93% 0 in 63.00 W/m2
08:45 35.8 °F 34 °F 29.7 in Calm   2 mph 93% 0 in 81.00 W/m2
08:50 36 °F 34.2 °F 29.7 in SSE 6 mph 8 mph 93% 0 in 70.00 W/m2
08:55 36.1 °F 34.3 °F 29.7 in Calm   2 mph 93% 0 in 60.00 W/m2
09:00 36.3 °F 34.2 °F 29.7 in ENE 0.9 mph 6 mph 92% 0 in 53.00 W/m2
09:05 36.3 °F 34.2 °F 29.7 in Calm   3 mph 92% 0 in 51.00 W/m2
09:10 36.3 °F 34.2 °F 29.7 in ENE 2 mph 3 mph 92% 0 in 56.00 W/m2
09:15 36.7 °F 34.5 °F 29.7 in East 0.9 mph 2 mph 92% 0 in 53.00 W/m2
09:20 36.7 °F 34.5 °F 29.7 in East 0.9 mph 3 mph 92% 0 in 46.00 W/m2
09:25 36.9 °F 34.7 °F 29.7 in ESE 2.9 mph 5 mph 92% 0 in 44.00 W/m2
09:30 37 °F 34.9 °F 29.7 in ESE 4 mph 5 mph 92% 0 in 60.00 W/m2
09:35 37 °F 34.7 °F 29.7 in ENE 4.9 mph 5 mph 91% 0 in 46.00 W/m2
09:40 37 °F 34.7 °F 29.7 in ESE 2 mph 9 mph 91% 0 in 44.00 W/m2
09:45 37.2 °F 34.9 °F 29.7 in ESE 0.9 mph 3 mph 91% 0 in 40.00 W/m2
09:50 37.2 °F 34.9 °F 29.7 in East 2.9 mph 7 mph 91% 0 in 40.00 W/m2
09:55 37.6 °F 35.2 °F 29.7 in SE 0.9 mph 6 mph 91% 0 in 35.00 W/m2
10:00 37.6 °F 35.2 °F 29.7 in SE 4 mph 9 mph 91% 0 in 26.00 W/m2
10:05 37.8 °F 35.4 °F 29.7 in ESE 2 mph 5 mph 91% 0 in 21.00 W/m2
10:10 37.8 °F 35.4 °F 29.7 in ESE 0.9 mph 3 mph 91% 0.01 in 19.00 W/m2
10:15 37.9 °F 35.6 °F 29.6 in ESE 0.9 mph 6 mph 91% 0.01 in 18.00 W/m2
10:20 38.1 °F 35.8 °F 29.6 in ESE 2.9 mph 5 mph 91% 0.02 in 18.00 W/m2
10:25 38.1 °F 35.8 °F 29.6 in ESE 2 mph 8 mph 91% 0.02 in 12.00 W/m2
10:30 38.3 °F 36 °F 29.6 in SE 2 mph 7 mph 91% 0.03 in 9.00 W/m2
10:35 38.5 °F 36.1 °F 29.6 in ESE 2 mph 4 mph 91% 0.04 in 7.00 W/m2
10:40 38.5 °F 36.1 °F 29.6 in ESE 0.9 mph 6 mph 91% 0.06 in 12.00 W/m2
10:45 38.5 °F 36.1 °F 29.6 in Calm   4 mph 91% 0.07 in 16.00 W/m2
10:50 38.5 °F 36.1 °F 29.6 in SSE 2.9 mph 6 mph 91% 0.09 in 19.00 W/m2
10:55 38.7 °F 36.5 °F 29.6 in ESE 0.9 mph 5 mph 92% 0.11 in 21.00 W/m2
11:00 38.8 °F 36.7 °F 29.6 in ESE 0.9 mph 4 mph 92% 0.12 in 18.00 W/m2
11:05 39.2 °F 37 °F 29.6 in East 4 mph 10 mph 92% 0.13 in 14.00 W/m2
11:10 39.4 °F 37.2 °F 29.6 in ESE 2.9 mph 5 mph 92% 0.13 in 12.00 W/m2
11:15 39.4 °F 37.2 °F 29.6 in Calm   2 mph 92% 0.14 in 16.00 W/m2
11:20 39.6 °F 37.4 °F 29.6 in ESE 2.9 mph 4 mph 92% 0.15 in 25.00 W/m2
11:25 39.6 °F 37.4 °F 29.6 in ESE 2 mph 4 mph 92% 0.15 in 19.00 W/m2
11:30 39.6 °F 37.4 °F 29.6 in Calm   5 mph 92% 0.15 in 21.00 W/m2
11:35 39.7 °F 37.6 °F 29.6 in SE 4 mph 9 mph 92% 0.16 in 26.00 W/m2
11:40 39.7 °F 37.6 °F 29.6 in ESE 0.9 mph 7 mph 92% 0.16 in 25.00 W/m2
11:45 39.7 °F 37.9 °F 29.6 in ESE 4.9 mph 8 mph 93% 0.15 in 25.00 W/m2
11:50 39.9 °F 38.1 °F 29.6 in ESE 0.9 mph 4 mph 93% 0.13 in 33.00 W/m2
11:55 40.1 °F 38.3 °F 29.6 in SE 0.9 mph 4 mph 93% 0.12 in 28.00 W/m2
12:00 40.1 °F 38.3 °F 29.6 in ENE 2.9 mph 5 mph 93% 0.12 in 35.00 W/m2
12:05 40.5 °F 38.7 °F 29.6 in ESE 2 mph 5 mph 93% 0.11 in 35.00 W/m2
12:10 40.5 °F 38.7 °F 29.6 in ESE 2 mph 7 mph 93% 0.1 in 32.00 W/m2
12:15 40.6 °F 38.8 °F 29.6 in East 2.9 mph 6 mph 93% 0.1 in 30.00 W/m2
12:20 40.6 °F 38.8 °F 29.6 in East 0.9 mph 8 mph 93% 0.09 in 28.00 W/m2
12:25 40.6 °F 38.8 °F 29.6 in ESE 2 mph 10 mph 93% 0.09 in 26.00 W/m2
12:30 40.8 °F 39 °F 29.6 in ESE 6.9 mph 7 mph 93% 0.08 in 23.00 W/m2
12:35 40.8 °F 39 °F 29.6 in ESE 2 mph 7 mph 93% 0.08 in 32.00 W/m2
12:40 41 °F 39.2 °F 29.6 in ESE 2.9 mph 8 mph 93% 0.07 in 37.00 W/m2
12:45 41.2 °F 39.6 °F 29.6 in East 4 mph 8 mph 94% 0.06 in 37.00 W/m2
12:50 41.4 °F 39.7 °F 29.6 in ESE 2.9 mph 7 mph 94% 0.07 in 44.00 W/m2
12:55 41.4 °F 39.7 °F 29.5 in SE 4.9 mph 8 mph 94% 0.07 in 47.00 W/m2
13:00 41.5 °F 39.9 °F 29.5 in ESE 2 mph 5 mph 94% 0.06 in 47.00 W/m2
13:05 41.5 °F 39.9 °F 29.5 in Calm   3 mph 94% 0.06 in 54.00 W/m2
13:10 41.5 °F 39.9 °F 29.5 in ENE 0.9 mph 2 mph 94% 0.06 in 39.00 W/m2
13:15 41.7 °F 40.1 °F 29.5 in East 2 mph 5 mph 94% 0.05 in 26.00 W/m2
13:20 41.7 °F 40.1 °F 29.6 in East 2 mph 2 mph 94% 0.04 in 25.00 W/m2
13:25 41.9 °F 40.3 °F 29.6 in Calm   3 mph 94% 0.03 in 49.00 W/m2
13:30 42.1 °F 40.5 °F 29.6 in East 0.9 mph 4 mph 94% 0.03 in 54.00 W/m2
13:35 42.1 °F 40.5 °F 29.5 in SE 2 mph 4 mph 94% 0.02 in 74.00 W/m2
13:40 42.3 °F 40.6 °F 29.5 in Calm   6 mph 94% 0.02 in 67.00 W/m2
13:45 42.4 °F 40.8 °F 29.5 in ESE 2 mph 5 mph 94% 0.02 in 72.00 W/m2
13:50 42.4 °F 40.8 °F 29.5 in Calm   4 mph 94% 0.01 in 84.00 W/m2
13:55 42.4 °F 40.8 °F 29.5 in Calm     94% 0 in 67.00 W/m2
14:00 42.6 °F 41 °F 29.5 in Calm   2 mph 94% 0 in 67.00 W/m2
14:05 43 °F 41.4 °F 29.5 in Calm   1 mph 94% 0 in 65.00 W/m2
14:10 43 °F 41.4 °F 29.5 in Calm     94% 0 in 72.00 W/m2
14:15 43.2 °F 41.5 °F 29.5 in Calm   2 mph 94% 0 in 83.00 W/m2
14:20 43.2 °F 41.5 °F 29.5 in Calm     94% 0 in 93.00 W/m2
14:25 43.3 °F 41.7 °F 29.5 in Calm     94% 0 in 151.00 W/m2
14:30 43.7 °F 42.1 °F 29.5 in Calm     94% 0 in 186.00 W/m2
14:35 44.1 °F 42.4 °F 29.5 in Calm     94% 0 in 241.00 W/m2
14:40 44.2 °F 43 °F 29.5 in Calm     95% 0 in 251.00 W/m2
14:45 44.6 °F 43 °F 29.5 in Calm     94% 0 in 230.00 W/m2
14:50 44.6 °F 43 °F 29.5 in Calm     94% 0 in 141.00 W/m2
14:55 44.4 °F 43.2 °F 29.5 in Calm   1 mph 95% 0 in 56.00 W/m2
15:00 44.4 °F 43.2 °F 29.5 in Calm     95% 0 in 67.00 W/m2
15:05 44.4 °F 42.8 °F 29.5 in ESE 2 mph 2 mph 94% 0 in 56.00 W/m2
15:10 44.2 °F 43 °F 29.5 in ESE 2.9 mph 4 mph 95% 0 in 46.00 W/m2
15:15 44.1 °F 42.8 °F 29.5 in NNW 2.9 mph 4 mph 95% 0 in 53.00 W/m2
15:20 44.2 °F 43 °F 29.5 in West 2.9 mph 8 mph 95% 0 in 67.00 W/m2
15:25 44.1 °F 42.4 °F 29.5 in West 4.9 mph 6 mph 94% 0 in 88.00 W/m2
15:30 43.9 °F 42.3 °F 29.5 in WNW 6 mph 7 mph 94% 0 in 84.00 W/m2
15:35 43.9 °F 42.3 °F 29.5 in WNW 2.9 mph 6 mph 94% 0 in 79.00 W/m2
15:40 43.9 °F 42.3 °F 29.5 in Calm   3 mph 94% 0 in 74.00 W/m2
15:45 43.9 °F 42.3 °F 29.5 in WNW 0.9 mph 6 mph 94% 0 in 69.00 W/m2
15:50 43.9 °F 42.3 °F 29.5 in WNW 0.9 mph 3 mph 94% 0 in 40.00 W/m2
15:55 43.9 °F 42.3 °F 29.5 in WNW 2 mph 3 mph 94% 0 in 16.00 W/m2
16:00 43.9 °F 42.3 °F 29.5 in NW 4 mph 7 mph 94% 0 in 16.00 W/m2
16:05 43.5 °F 41.9 °F 29.5 in NW 0.9 mph 5 mph 94% 0 in 14.00 W/m2
16:10 43.5 °F 41.9 °F 29.5 in Calm   3 mph 94% 0 in 9.00 W/m2
16:15 43.3 °F 41.7 °F 29.5 in NW 2 mph 5 mph 94% 0 in 5.00 W/m2
16:20 43.2 °F 41.5 °F 29.5 in Calm   5 mph 94% 0 in 5.00 W/m2
16:25 43.2 °F 41.5 °F 29.6 in WNW 6.9 mph 8 mph 94% 0 in 0.00 W/m2
16:30 43 °F 41.4 °F 29.6 in WNW 4.9 mph 6 mph 94% 0 in 0.00 W/m2
16:35 42.8 °F 41.2 °F 29.6 in NW 4 mph 6 mph 94% 0 in 0.00 W/m2
16:40 42.8 °F 41.2 °F 29.6 in NW 2 mph 8 mph 94% 0 in 0.00 W/m2
16:45 42.6 °F 41 °F 29.6 in NW 8.1 mph 10 mph 94% 0 in 0.00 W/m2
16:50 42.6 °F 41 °F 29.6 in NW 6 mph 8 mph 94% 0 in 0.00 W/m2
16:55 42.4 °F 40.8 °F 29.6 in WNW 6 mph 9 mph 94% 0 in 0.00 W/m2
17:00 42.4 °F 40.8 °F 29.6 in NW 0.9 mph 5 mph 94% 0 in 0.00 W/m2
17:05 42.3 °F 40.6 °F 29.6 in NW 0.9 mph 2 mph 94% 0 in 0.00 W/m2
17:10 42.3 °F 40.6 °F 29.6 in NW 0.9 mph 4 mph 94% 0 in 0.00 W/m2
17:15 42.4 °F 40.8 °F 29.6 in Calm   3 mph 94% 0 in 0.00 W/m2
17:20 42.4 °F 40.8 °F 29.6 in NW 2.9 mph 9 mph 94% 0 in 0.00 W/m2
17:25 42.3 °F 40.6 °F 29.6 in WNW 4 mph 9 mph 94% 0 in 0.00 W/m2
17:30 42.3 °F 40.6 °F 29.6 in Calm   7 mph 94% 0 in 0.00 W/m2
17:35 42.3 °F 40.6 °F 29.6 in NW 2.9 mph 6 mph 94% 0 in 0.00 W/m2
17:40 42.3 °F 40.6 °F 29.6 in NW 2 mph 3 mph 94% 0 in 0.00 W/m2
17:45 42.3 °F 40.6 °F 29.6 in Calm   3 mph 94% 0 in 0.00 W/m2
17:50 42.3 °F 40.6 °F 29.6 in Calm   2 mph 94% 0 in 0.00 W/m2
17:55 42.1 °F 40.5 °F 29.6 in Calm   2 mph 94% 0 in 0.00 W/m2
18:00 42.1 °F 40.5 °F 29.6 in NW 0.9 mph 1 mph 94% 0 in 0.00 W/m2
18:05 41.7 °F 40.1 °F 29.6 in NW 2 mph 3 mph 94% 0 in 0.00 W/m2
18:10 41.7 °F 40.1 °F 29.6 in NW 2 mph 4 mph 94% 0 in 0.00 W/m2
18:15 41.7 °F 40.1 °F 29.6 in Calm   3 mph 94% 0 in 0.00 W/m2
18:20 41.7 °F 40.1 °F 29.6 in Calm   4 mph 94% 0 in 0.00 W/m2
18:25 41.5 °F 39.9 °F 29.6 in Calm   5 mph 94% 0 in 0.00 W/m2
18:30 41.7 °F 40.1 °F 29.6 in Calm   1 mph 94% 0 in 0.00 W/m2
18:35 41.7 °F 40.1 °F 29.6 in Calm   1 mph 94% 0 in 0.00 W/m2
18:40 41.7 °F 40.1 °F 29.6 in NW 0.9 mph 2 mph 94% 0 in 0.00 W/m2
18:45 41.7 °F 40.1 °F 29.6 in NW 0.9 mph 3 mph 94% 0 in 0.00 W/m2
18:50 41.7 °F 40.1 °F 29.6 in NW 2 mph 4 mph 94% 0 in 0.00 W/m2
18:55 41.7 °F 40.1 °F 29.6 in NW 2 mph 5 mph 94% 0 in 0.00 W/m2
19:00 41.7 °F 40.1 °F 29.6 in Calm   4 mph 94% 0 in 0.00 W/m2
19:05 41.7 °F 40.1 °F 29.6 in WNW 2 mph 4 mph 94% 0 in 0.00 W/m2
19:10 41.7 °F 40.1 °F 29.6 in WNW 4 mph 6 mph 94% 0 in 0.00 W/m2
19:15 41.7 °F 40.1 °F 29.6 in WNW 2.9 mph 5 mph 94% 0 in 0.00 W/m2
19:20 41.7 °F 40.1 °F 29.6 in WNW 4 mph 4 mph 94% 0 in 0.00 W/m2
19:25 41.7 °F 40.1 °F 29.6 in WNW 4 mph 5 mph 94% 0 in 0.00 W/m2
19:30 41.5 °F 39.9 °F 29.6 in WNW 2 mph 5 mph 94% 0 in 0.00 W/m2
19:35 41.7 °F 40.1 °F 29.6 in WNW 2.9 mph 3 mph 94% 0 in 0.00 W/m2
19:40 41.7 °F 40.1 °F 29.6 in WNW 0.9 mph 3 mph 94% 0 in 0.00 W/m2
19:45 41.7 °F 40.1 °F 29.6 in WNW 0.9 mph 1 mph 94% 0 in 0.00 W/m2
19:50 41.7 °F 40.1 °F 29.6 in Calm   3 mph 94% 0 in 0.00 W/m2
19:55 41.7 °F 40.1 °F 29.6 in WNW 2.9 mph 3 mph 94% 0 in 0.00 W/m2
20:00 41.7 °F 40.1 °F 29.6 in WNW 2.9 mph 4 mph 94% 0 in 0.00 W/m2
20:05 41.7 °F 40.1 °F 29.6 in Calm   4 mph 94% 0 in 0.00 W/m2
20:10 41.9 °F 40.3 °F 29.6 in WNW 2.9 mph 4 mph 94% 0 in 0.00 W/m2
20:15 41.9 °F 40.3 °F 29.6 in WNW 2.9 mph 3 mph 94% 0 in 0.00 W/m2
20:20 41.9 °F 40.3 °F 29.6 in WNW 2 mph 3 mph 94% 0 in 0.00 W/m2
20:25 41.9 °F 40.3 °F 29.6 in WNW 2 mph 2 mph 94% 0 in 0.00 W/m2
20:30 41.9 °F 40.3 °F 29.6 in WNW 2.9 mph 5 mph 94% 0 in 0.00 W/m2
20:35 41.9 °F 40.3 °F 29.6 in WNW 2 mph 4 mph 94% 0 in 0.00 W/m2
20:40 41.9 °F 40.3 °F 29.6 in WNW 0.9 mph 2 mph 94% 0 in 0.00 W/m2
20:45 41.9 °F 40.3 °F 29.6 in WNW 2.9 mph 3 mph 94% 0 in 0.00 W/m2
20:50 41.7 °F 40.1 °F 29.6 in WNW 2 mph 3 mph 94% 0 in 0.00 W/m2
20:55 41.7 °F 40.1 °F 29.6 in WNW 2 mph 3 mph 94% 0 in 0.00 W/m2
21:00 41.5 °F 39.9 °F 29.6 in Calm   3 mph 94% 0 in 0.00 W/m2
21:05 41.5 °F 39.9 °F 29.6 in NNW 0.9 mph 5 mph 94% 0 in 0.00 W/m2
21:10 41.5 °F 39.9 °F 29.6 in NW 2 mph 7 mph 94% 0 in 0.00 W/m2
21:15 41.5 °F 39.9 °F 29.6 in NW 2 mph 4 mph 94% 0 in 0.00 W/m2
21:20 41.5 °F 39.9 °F 29.6 in Calm   4 mph 94% 0 in 0.00 W/m2
21:25 41.5 °F 39.9 °F 29.6 in NW 2 mph 5 mph 94% 0 in 0.00 W/m2
21:30 41.5 °F 39.9 °F 29.6 in NW 2 mph 7 mph 94% 0 in 0.00 W/m2
21:35 41.5 °F 39.9 °F 29.6 in NW 2 mph 4 mph 94% 0 in 0.00 W/m2
21:40 41.5 °F 39.9 °F 29.6 in NW 2.9 mph 5 mph 94% 0 in 0.00 W/m2
21:45 41.7 °F 40.1 °F 29.6 in Calm   4 mph 94% 0 in 0.00 W/m2
21:50 41.7 °F 40.1 °F 29.6 in NW 2 mph 4 mph 94% 0 in 0.00 W/m2
21:55 41.5 °F 39.9 °F 29.6 in NNW 4.9 mph 8 mph 94% 0 in 0.00 W/m2
22:00 41.4 °F 39.7 °F 29.6 in North 4 mph 5 mph 94% 0 in 0.00 W/m2
22:05 41.4 °F 39.7 °F 29.6 in NNE 2.9 mph 7 mph 94% 0 in 0.00 W/m2
22:10 41.2 °F 39.6 °F 29.6 in NE 4.9 mph 8 mph 94% 0 in 0.00 W/m2
22:15 41.2 °F 39.6 °F 29.6 in NW 2.9 mph 10 mph 94% 0 in 0.00 W/m2
22:20 41 °F 39.4 °F 29.6 in North 0.9 mph 7 mph 94% 0 in 0.00 W/m2
22:25 41 °F 39.4 °F 29.6 in North 2 mph 7 mph 94% 0 in 0.00 W/m2
22:30 41 °F 39.4 °F 29.6 in North 2 mph 8 mph 94% 0 in 0.00 W/m2
22:35 40.8 °F 39.2 °F 29.6 in NNW 2.9 mph 9 mph 94% 0 in 0.00 W/m2
22:40 41 °F 39.4 °F 29.6 in NNW 4.9 mph 7 mph 94% 0 in 0.00 W/m2
22:45 41 °F 39.4 °F 29.6 in Calm   6 mph 94% 0 in 0.00 W/m2
22:52 41.2 °F 39.6 °F 29.6 in Calm   4 mph 94% 0 in 0.00 W/m2
22:55 41 °F 39.4 °F 29.6 in Calm   4 mph 94% 0 in 0.00 W/m2
23:00 41.2 °F 39.6 °F 29.6 in North 2 mph 8 mph 94% 0 in 0.00 W/m2
23:05 41.4 °F 39.7 °F 29.6 in NW 2 mph 7 mph 94% 0 in 0.00 W/m2
23:10 41.4 °F 39.7 °F 29.6 in North 6.9 mph 9 mph 94% 0 in 0.00 W/m2
23:15 41.4 °F 39.7 °F 29.6 in NW 6 mph 7 mph 94% 0 in 0.00 W/m2
23:20 41.2 °F 39.6 °F 29.6 in NW 2 mph 8 mph 94% 0 in 0.00 W/m2
23:25 41.4 °F 39.7 °F 29.6 in NNW 0.9 mph 9 mph 94% 0 in 0.00 W/m2
23:30 41.4 °F 39.7 °F 29.6 in Calm   4 mph 94% 0 in 0.00 W/m2
23:35 41.4 °F 39.7 °F 29.6 in WNW 8.9 mph 11 mph 94% 0 in 0.00 W/m2
23:40 41.4 °F 39.7 °F 29.6 in NNW 4 mph 5 mph 94% 0 in 0.00 W/m2
23:45 41.4 °F 39.7 °F 29.6 in Calm   6 mph 94% 0 in 0.00 W/m2
23:50 41.4 °F 39.7 °F 29.6 in NNW 6 mph 8 mph 94% 0 in 0.00 W/m2
23:55 41.4 °F 39.7 °F 29.6 in North 4.9 mph 7 mph 94% 0 in 0.00 W/m2